sensor_id;sensor_type;location;lat;lon;timestamp;temperature;humidity
80676;SHT30;70041;46.088;18.268;2024-01-27T00:00:39;6.95;70.57
80676;SHT30;70041;46.088;18.268;2024-01-27T00:03:05;6.92;70.41
80676;SHT30;70041;46.088;18.268;2024-01-27T00:05:30;7.02;71.43
80676;SHT30;70041;46.088;18.268;2024-01-27T00:07:55;7.03;70.93
80676;SHT30;70041;46.088;18.268;2024-01-27T00:10:21;7.24;69.56
80676;SHT30;70041;46.088;18.268;2024-01-27T00:12:46;7.61;70.26
80676;SHT30;70041;46.088;18.268;2024-01-27T00:15:12;7.03;74.69
80676;SHT30;70041;46.088;18.268;2024-01-27T00:17:37;6.41;80.38
80676;SHT30;70041;46.088;18.268;2024-01-27T00:20:03;6.14;80.97
80676;SHT30;70041;46.088;18.268;2024-01-27T00:22:28;5.90;82.46
80676;SHT30;70041;46.088;18.268;2024-01-27T00:24:54;5.79;83.54
80676;SHT30;70041;46.088;18.268;2024-01-27T00:27:19;5.77;84.21
80676;SHT30;70041;46.088;18.268;2024-01-27T00:29:44;5.65;85.73
80676;SHT30;70041;46.088;18.268;2024-01-27T00:32:10;5.66;86.24
80676;SHT30;70041;46.088;18.268;2024-01-27T00:34:35;5.75;84.80
80676;SHT30;70041;46.088;18.268;2024-01-27T00:37:01;5.83;83.53
80676;SHT30;70041;46.088;18.268;2024-01-27T00:39:26;5.86;82.95
80676;SHT30;70041;46.088;18.268;2024-01-27T00:41:52;5.86;83.20
80676;SHT30;70041;46.088;18.268;2024-01-27T00:44:20;5.93;81.95
80676;SHT30;70041;46.088;18.268;2024-01-27T00:46:45;6.05;82.09
80676;SHT30;70041;46.088;18.268;2024-01-27T00:49:10;6.10;82.46
80676;SHT30;70041;46.088;18.268;2024-01-27T00:51:36;6.07;82.16
80676;SHT30;70041;46.088;18.268;2024-01-27T00:54:01;6.17;81.62
80676;SHT30;70041;46.088;18.268;2024-01-27T00:56:27;6.18;81.71
80676;SHT30;70041;46.088;18.268;2024-01-27T00:58:52;6.16;81.68
80676;SHT30;70041;46.088;18.268;2024-01-27T01:01:18;6.23;81.50
80676;SHT30;70041;46.088;18.268;2024-01-27T01:03:43;6.17;81.80
80676;SHT30;70041;46.088;18.268;2024-01-27T01:06:11;6.11;81.78
80676;SHT30;70041;46.088;18.268;2024-01-27T01:08:36;6.17;82.19
80676;SHT30;70041;46.088;18.268;2024-01-27T01:11:03;6.26;81.71
80676;SHT30;70041;46.088;18.268;2024-01-27T01:13:29;6.26;81.48
80676;SHT30;70041;46.088;18.268;2024-01-27T01:15:54;6.30;80.79
80676;SHT30;70041;46.088;18.268;2024-01-27T01:18:20;6.34;80.98
80676;SHT30;70041;46.088;18.268;2024-01-27T01:20:45;6.38;80.59
80676;SHT30;70041;46.088;18.268;2024-01-27T01:23:11;6.40;79.71
80676;SHT30;70041;46.088;18.268;2024-01-27T01:25:36;6.41;79.42
80676;SHT30;70041;46.088;18.268;2024-01-27T01:28:02;6.42;79.61
80676;SHT30;70041;46.088;18.268;2024-01-27T01:30:28;6.30;79.87
80676;SHT30;70041;46.088;18.268;2024-01-27T01:32:54;6.34;78.96
80676;SHT30;70041;46.088;18.268;2024-01-27T01:35:19;6.34;78.49
80676;SHT30;70041;46.088;18.268;2024-01-27T01:37:45;6.45;76.73
80676;SHT30;70041;46.088;18.268;2024-01-27T01:40:10;6.44;77.02
80676;SHT30;70041;46.088;18.268;2024-01-27T01:42:36;6.47;76.44
80676;SHT30;70041;46.088;18.268;2024-01-27T01:45:01;6.51;75.43
80676;SHT30;70041;46.088;18.268;2024-01-27T01:47:27;6.51;74.79
80676;SHT30;70041;46.088;18.268;2024-01-27T01:49:53;6.50;74.63
80676;SHT30;70041;46.088;18.268;2024-01-27T01:52:19;6.57;73.65
80676;SHT30;70041;46.088;18.268;2024-01-27T01:54:49;6.59;72.53
80676;SHT30;70041;46.088;18.268;2024-01-27T01:57:16;6.58;71.96
80676;SHT30;70041;46.088;18.268;2024-01-27T01:59:42;6.64;71.22
80676;SHT30;70041;46.088;18.268;2024-01-27T02:02:08;6.75;69.54
80676;SHT30;70041;46.088;18.268;2024-01-27T02:04:43;6.74;68.92
80676;SHT30;70041;46.088;18.268;2024-01-27T02:07:09;6.88;67.65
80676;SHT30;70041;46.088;18.268;2024-01-27T02:09:35;6.89;67.19
80676;SHT30;70041;46.088;18.268;2024-01-27T02:12:01;6.93;66.27
80676;SHT30;70041;46.088;18.268;2024-01-27T02:14:26;7.01;65.80
80676;SHT30;70041;46.088;18.268;2024-01-27T02:16:53;7.03;64.85
80676;SHT30;70041;46.088;18.268;2024-01-27T02:19:18;6.96;65.21
80676;SHT30;70041;46.088;18.268;2024-01-27T02:21:44;7.03;63.71
80676;SHT30;70041;46.088;18.268;2024-01-27T02:24:09;7.10;63.05
80676;SHT30;70041;46.088;18.268;2024-01-27T02:26:35;7.03;63.54
80676;SHT30;70041;46.088;18.268;2024-01-27T02:29:01;7.10;62.25
80676;SHT30;70041;46.088;18.268;2024-01-27T02:31:26;7.13;62.44
80676;SHT30;70041;46.088;18.268;2024-01-27T02:33:52;7.06;62.69
80676;SHT30;70041;46.088;18.268;2024-01-27T02:36:17;6.99;63.33
80676;SHT30;70041;46.088;18.268;2024-01-27T02:38:45;6.95;63.54
80676;SHT30;70041;46.088;18.268;2024-01-27T02:41:10;6.91;63.35
80676;SHT30;70041;46.088;18.268;2024-01-27T02:43:36;6.89;63.95
80676;SHT30;70041;46.088;18.268;2024-01-27T02:46:02;6.87;64.02
80676;SHT30;70041;46.088;18.268;2024-01-27T02:48:27;6.87;63.79
80676;SHT30;70041;46.088;18.268;2024-01-27T02:50:53;6.88;64.33
80676;SHT30;70041;46.088;18.268;2024-01-27T02:53:18;6.84;63.95
80676;SHT30;70041;46.088;18.268;2024-01-27T02:55:44;6.81;63.90
80676;SHT30;70041;46.088;18.268;2024-01-27T02:58:10;6.87;63.86
80676;SHT30;70041;46.088;18.268;2024-01-27T03:00:35;6.78;64.72
80676;SHT30;70041;46.088;18.268;2024-01-27T03:03:00;6.75;64.30
80676;SHT30;70041;46.088;18.268;2024-01-27T03:05:26;6.71;64.70
80676;SHT30;70041;46.088;18.268;2024-01-27T03:07:51;6.68;64.99
80676;SHT30;70041;46.088;18.268;2024-01-27T03:10:17;6.55;65.76
80676;SHT30;70041;46.088;18.268;2024-01-27T03:12:42;6.58;65.33
80676;SHT30;70041;46.088;18.268;2024-01-27T03:15:08;6.58;65.65
80676;SHT30;70041;46.088;18.268;2024-01-27T03:17:33;6.64;65.00
80676;SHT30;70041;46.088;18.268;2024-01-27T03:19:59;6.59;64.79
80676;SHT30;70041;46.088;18.268;2024-01-27T03:22:24;6.52;65.34
80676;SHT30;70041;46.088;18.268;2024-01-27T03:24:49;6.47;65.66
80676;SHT30;70041;46.088;18.268;2024-01-27T03:27:17;6.52;65.37
80676;SHT30;70041;46.088;18.268;2024-01-27T03:29:42;6.55;65.08
80676;SHT30;70041;46.088;18.268;2024-01-27T03:32:07;6.48;65.35
80676;SHT30;70041;46.088;18.268;2024-01-27T03:34:33;6.42;65.69
80676;SHT30;70041;46.088;18.268;2024-01-27T03:36:58;6.44;65.44
80676;SHT30;70041;46.088;18.268;2024-01-27T03:39:23;6.45;65.39
80676;SHT30;70041;46.088;18.268;2024-01-27T03:41:49;6.50;65.13
80676;SHT30;70041;46.088;18.268;2024-01-27T03:44:14;6.51;65.43
80676;SHT30;70041;46.088;18.268;2024-01-27T03:46:40;6.50;65.42
80676;SHT30;70041;46.088;18.268;2024-01-27T03:49:05;6.50;64.88
80676;SHT30;70041;46.088;18.268;2024-01-27T03:51:30;6.50;64.80
80676;SHT30;70041;46.088;18.268;2024-01-27T03:53:56;6.45;64.75
80676;SHT30;70041;46.088;18.268;2024-01-27T03:56:21;6.42;64.89
80676;SHT30;70041;46.088;18.268;2024-01-27T03:58:47;6.40;65.11
80676;SHT30;70041;46.088;18.268;2024-01-27T04:01:12;6.36;65.42
80676;SHT30;70041;46.088;18.268;2024-01-27T04:03:37;6.40;64.58
80676;SHT30;70041;46.088;18.268;2024-01-27T04:06:03;6.38;64.96
80676;SHT30;70041;46.088;18.268;2024-01-27T04:08:30;6.45;64.82
80676;SHT30;70041;46.088;18.268;2024-01-27T04:10:55;6.40;64.67
80676;SHT30;70041;46.088;18.268;2024-01-27T04:13:21;6.38;64.57
80676;SHT30;70041;46.088;18.268;2024-01-27T04:15:46;6.40;64.80
80676;SHT30;70041;46.088;18.268;2024-01-27T04:18:11;6.37;64.67
80676;SHT30;70041;46.088;18.268;2024-01-27T04:20:37;6.34;64.91
80676;SHT30;70041;46.088;18.268;2024-01-27T04:23:03;6.36;64.70
80676;SHT30;70041;46.088;18.268;2024-01-27T04:25:29;6.33;64.96
80676;SHT30;70041;46.088;18.268;2024-01-27T04:27:54;6.27;64.99
80676;SHT30;70041;46.088;18.268;2024-01-27T04:30:20;6.30;65.28
80676;SHT30;70041;46.088;18.268;2024-01-27T04:32:46;6.36;64.96
80676;SHT30;70041;46.088;18.268;2024-01-27T04:35:14;6.26;65.29
80676;SHT30;70041;46.088;18.268;2024-01-27T04:37:39;6.26;65.28
80676;SHT30;70041;46.088;18.268;2024-01-27T04:40:05;6.17;65.33
80676;SHT30;70041;46.088;18.268;2024-01-27T04:42:37;6.20;65.61
80676;SHT30;70041;46.088;18.268;2024-01-27T04:45:03;6.13;65.69
80676;SHT30;70041;46.088;18.268;2024-01-27T04:47:29;6.07;66.08
80676;SHT30;70041;46.088;18.268;2024-01-27T04:49:55;6.13;66.17
80676;SHT30;70041;46.088;18.268;2024-01-27T04:52:21;6.09;66.00
80676;SHT30;70041;46.088;18.268;2024-01-27T04:54:46;6.09;66.09
80676;SHT30;70041;46.088;18.268;2024-01-27T04:57:11;6.03;66.33
80676;SHT30;70041;46.088;18.268;2024-01-27T04:59:39;6.03;66.37
80676;SHT30;70041;46.088;18.268;2024-01-27T05:02:07;6.07;66.14
80676;SHT30;70041;46.088;18.268;2024-01-27T05:04:32;6.00;66.28
80676;SHT30;70041;46.088;18.268;2024-01-27T05:06:58;5.99;66.46
80676;SHT30;70041;46.088;18.268;2024-01-27T05:09:23;5.96;66.63
80676;SHT30;70041;46.088;18.268;2024-01-27T05:11:49;5.85;67.29
80676;SHT30;70041;46.088;18.268;2024-01-27T05:14:18;5.89;66.62
80676;SHT30;70041;46.088;18.268;2024-01-27T05:16:43;5.87;66.67
80676;SHT30;70041;46.088;18.268;2024-01-27T05:19:10;5.89;66.52
80676;SHT30;70041;46.088;18.268;2024-01-27T05:21:35;5.86;66.65
80676;SHT30;70041;46.088;18.268;2024-01-27T05:24:01;5.90;66.47
80676;SHT30;70041;46.088;18.268;2024-01-27T05:26:29;5.79;67.07
80676;SHT30;70041;46.088;18.268;2024-01-27T05:28:55;5.82;66.55
80676;SHT30;70041;46.088;18.268;2024-01-27T05:31:21;5.82;66.94
80676;SHT30;70041;46.088;18.268;2024-01-27T05:33:46;5.79;66.80
80676;SHT30;70041;46.088;18.268;2024-01-27T05:36:11;5.67;66.92
80676;SHT30;70041;46.088;18.268;2024-01-27T05:38:37;5.76;66.59
80676;SHT30;70041;46.088;18.268;2024-01-27T05:41:02;5.82;66.19
80676;SHT30;70041;46.088;18.268;2024-01-27T05:43:28;5.67;66.69
80676;SHT30;70041;46.088;18.268;2024-01-27T05:45:53;5.75;66.08
80676;SHT30;70041;46.088;18.268;2024-01-27T05:48:19;5.82;66.29
80676;SHT30;70041;46.088;18.268;2024-01-27T05:50:54;5.72;66.25
80676;SHT30;70041;46.088;18.268;2024-01-27T05:53:21;5.72;65.88
80676;SHT30;70041;46.088;18.268;2024-01-27T05:55:46;5.70;65.89
80676;SHT30;70041;46.088;18.268;2024-01-27T05:58:12;5.75;65.17
80676;SHT30;70041;46.088;18.268;2024-01-27T06:00:37;5.70;65.37
80676;SHT30;70041;46.088;18.268;2024-01-27T06:03:03;5.66;65.15
80676;SHT30;70041;46.088;18.268;2024-01-27T06:05:29;5.65;65.13
80676;SHT30;70041;46.088;18.268;2024-01-27T06:07:54;5.62;65.26
80676;SHT30;70041;46.088;18.268;2024-01-27T06:10:20;5.65;64.68
80676;SHT30;70041;46.088;18.268;2024-01-27T06:12:45;5.63;64.76
80676;SHT30;70041;46.088;18.268;2024-01-27T06:15:11;5.63;64.52
80676;SHT30;70041;46.088;18.268;2024-01-27T06:17:36;5.73;63.74
80676;SHT30;70041;46.088;18.268;2024-01-27T06:20:02;5.72;63.89
80676;SHT30;70041;46.088;18.268;2024-01-27T06:22:28;5.77;63.34
80676;SHT30;70041;46.088;18.268;2024-01-27T06:24:53;5.72;63.80
80676;SHT30;70041;46.088;18.268;2024-01-27T06:27:19;5.66;63.96
80676;SHT30;70041;46.088;18.268;2024-01-27T06:29:44;5.65;64.13
80676;SHT30;70041;46.088;18.268;2024-01-27T06:32:09;5.60;63.92
80676;SHT30;70041;46.088;18.268;2024-01-27T06:34:35;5.65;63.50
80676;SHT30;70041;46.088;18.268;2024-01-27T06:37:00;5.60;63.63
80676;SHT30;70041;46.088;18.268;2024-01-27T06:39:26;5.62;63.62
80676;SHT30;70041;46.088;18.268;2024-01-27T06:41:52;5.63;63.57
80676;SHT30;70041;46.088;18.268;2024-01-27T06:44:17;5.63;63.73
80676;SHT30;70041;46.088;18.268;2024-01-27T06:46:42;5.70;63.69
80676;SHT30;70041;46.088;18.268;2024-01-27T06:49:10;5.69;63.78
80676;SHT30;70041;46.088;18.268;2024-01-27T06:51:35;5.70;63.81
80676;SHT30;70041;46.088;18.268;2024-01-27T06:54:01;5.76;64.08
80676;SHT30;70041;46.088;18.268;2024-01-27T06:56:26;5.72;64.43
80676;SHT30;70041;46.088;18.268;2024-01-27T06:58:51;5.75;64.16
80676;SHT30;70041;46.088;18.268;2024-01-27T07:01:17;5.76;64.36
80676;SHT30;70041;46.088;18.268;2024-01-27T07:03:42;5.66;64.58
80676;SHT30;70041;46.088;18.268;2024-01-27T07:06:09;5.75;64.50
80676;SHT30;70041;46.088;18.268;2024-01-27T07:08:35;5.72;64.96
80676;SHT30;70041;46.088;18.268;2024-01-27T07:11:00;5.66;65.33
80676;SHT30;70041;46.088;18.268;2024-01-27T07:13:25;5.62;65.55
80676;SHT30;70041;46.088;18.268;2024-01-27T07:15:54;5.65;65.27
80676;SHT30;70041;46.088;18.268;2024-01-27T07:18:19;5.73;65.26
80676;SHT30;70041;46.088;18.268;2024-01-27T07:20:45;5.76;65.09
80676;SHT30;70041;46.088;18.268;2024-01-27T07:23:10;5.89;64.72
80676;SHT30;70041;46.088;18.268;2024-01-27T07:25:35;5.95;64.48
80676;SHT30;70041;46.088;18.268;2024-01-27T07:28:01;5.97;64.22
80676;SHT30;70041;46.088;18.268;2024-01-27T07:30:26;6.06;64.18
80676;SHT30;70041;46.088;18.268;2024-01-27T07:32:52;6.07;64.12
80676;SHT30;70041;46.088;18.268;2024-01-27T07:35:17;6.03;64.15
80676;SHT30;70041;46.088;18.268;2024-01-27T07:37:43;6.05;63.88
80676;SHT30;70041;46.088;18.268;2024-01-27T07:40:09;6.16;63.42
80676;SHT30;70041;46.088;18.268;2024-01-27T07:42:34;6.23;62.94
80676;SHT30;70041;46.088;18.268;2024-01-27T07:45:00;6.27;62.29
80676;SHT30;70041;46.088;18.268;2024-01-27T07:47:25;6.31;62.33
80676;SHT30;70041;46.088;18.268;2024-01-27T07:49:50;6.36;61.98
80676;SHT30;70041;46.088;18.268;2024-01-27T07:52:16;6.40;62.44
80676;SHT30;70041;46.088;18.268;2024-01-27T07:54:41;6.48;61.76
80676;SHT30;70041;46.088;18.268;2024-01-27T07:57:07;6.47;61.25
80676;SHT30;70041;46.088;18.268;2024-01-27T07:59:32;6.51;61.65
80676;SHT30;70041;46.088;18.268;2024-01-27T08:01:59;6.63;60.66
80676;SHT30;70041;46.088;18.268;2024-01-27T08:04:24;6.63;59.69
80676;SHT30;70041;46.088;18.268;2024-01-27T08:06:50;6.61;60.13
80676;SHT30;70041;46.088;18.268;2024-01-27T08:09:17;6.68;59.74
80676;SHT30;70041;46.088;18.268;2024-01-27T08:11:42;6.74;59.72
80676;SHT30;70041;46.088;18.268;2024-01-27T08:14:09;6.82;59.16
80676;SHT30;70041;46.088;18.268;2024-01-27T08:16:34;6.87;58.85
80676;SHT30;70041;46.088;18.268;2024-01-27T08:19:00;6.88;58.26
80676;SHT30;70041;46.088;18.268;2024-01-27T08:21:25;6.92;58.14
80676;SHT30;70041;46.088;18.268;2024-01-27T08:23:51;6.91;58.60
80676;SHT30;70041;46.088;18.268;2024-01-27T08:26:16;6.98;58.14
80676;SHT30;70041;46.088;18.268;2024-01-27T08:28:43;7.05;57.81
80676;SHT30;70041;46.088;18.268;2024-01-27T08:31:09;7.02;57.80
80676;SHT30;70041;46.088;18.268;2024-01-27T08:33:35;7.06;57.07
80676;SHT30;70041;46.088;18.268;2024-01-27T08:36:00;7.12;55.90
80676;SHT30;70041;46.088;18.268;2024-01-27T08:38:26;7.08;55.90
80676;SHT30;70041;46.088;18.268;2024-01-27T08:40:52;7.12;55.99
80676;SHT30;70041;46.088;18.268;2024-01-27T08:43:18;7.16;56.85
80676;SHT30;70041;46.088;18.268;2024-01-27T08:45:43;7.16;56.25
80676;SHT30;70041;46.088;18.268;2024-01-27T08:48:09;7.10;56.53
80676;SHT30;70041;46.088;18.268;2024-01-27T08:50:36;7.20;57.31
80676;SHT30;70041;46.088;18.268;2024-01-27T08:53:02;7.22;56.04
80676;SHT30;70041;46.088;18.268;2024-01-27T08:55:27;7.18;56.62
80676;SHT30;70041;46.088;18.268;2024-01-27T08:57:53;7.26;55.96
80676;SHT30;70041;46.088;18.268;2024-01-27T09:00:18;7.32;56.27
80676;SHT30;70041;46.088;18.268;2024-01-27T09:02:44;7.24;55.86
80676;SHT30;70041;46.088;18.268;2024-01-27T09:05:10;7.26;55.88
80676;SHT30;70041;46.088;18.268;2024-01-27T09:07:35;7.30;55.76
80676;SHT30;70041;46.088;18.268;2024-01-27T09:10:01;7.37;56.35
80676;SHT30;70041;46.088;18.268;2024-01-27T09:12:27;7.44;56.06
80676;SHT30;70041;46.088;18.268;2024-01-27T09:14:52;7.50;56.12
80676;SHT30;70041;46.088;18.268;2024-01-27T09:17:19;7.59;55.84
80676;SHT30;70041;46.088;18.268;2024-01-27T09:19:45;7.54;54.97
80676;SHT30;70041;46.088;18.268;2024-01-27T09:22:10;7.46;55.47
80676;SHT30;70041;46.088;18.268;2024-01-27T09:24:35;7.57;55.68
80676;SHT30;70041;46.088;18.268;2024-01-27T09:27:01;7.59;56.11
80676;SHT30;70041;46.088;18.268;2024-01-27T09:29:27;7.66;55.20
80676;SHT30;70041;46.088;18.268;2024-01-27T09:31:52;7.71;55.47
80676;SHT30;70041;46.088;18.268;2024-01-27T09:34:18;7.66;55.41
80676;SHT30;70041;46.088;18.268;2024-01-27T09:36:43;7.67;55.16
80676;SHT30;70041;46.088;18.268;2024-01-27T09:39:09;7.66;54.82
80676;SHT30;70041;46.088;18.268;2024-01-27T09:41:34;7.60;55.41
80676;SHT30;70041;46.088;18.268;2024-01-27T09:44:03;7.70;56.11
80676;SHT30;70041;46.088;18.268;2024-01-27T09:46:30;7.80;55.67
80676;SHT30;70041;46.088;18.268;2024-01-27T09:48:56;7.85;54.72
80676;SHT30;70041;46.088;18.268;2024-01-27T09:51:22;7.90;54.91
80676;SHT30;70041;46.088;18.268;2024-01-27T09:53:48;7.91;54.95
80676;SHT30;70041;46.088;18.268;2024-01-27T09:56:16;7.95;54.67
80676;SHT30;70041;46.088;18.268;2024-01-27T09:58:44;7.99;54.81
80676;SHT30;70041;46.088;18.268;2024-01-27T10:01:10;8.06;54.29
80676;SHT30;70041;46.088;18.268;2024-01-27T10:03:38;8.09;53.58
80676;SHT30;70041;46.088;18.268;2024-01-27T10:06:08;8.15;53.49
80676;SHT30;70041;46.088;18.268;2024-01-27T10:08:33;8.24;53.58
80676;SHT30;70041;46.088;18.268;2024-01-27T10:10:59;8.12;53.57
80676;SHT30;70041;46.088;18.268;2024-01-27T10:13:25;8.11;53.35
80676;SHT30;70041;46.088;18.268;2024-01-27T10:16:03;8.31;53.27
80676;SHT30;70041;46.088;18.268;2024-01-27T10:18:29;8.60;52.47
80676;SHT30;70041;46.088;18.268;2024-01-27T10:20:55;8.93;52.25
80676;SHT30;70041;46.088;18.268;2024-01-27T10:23:20;8.83;50.75
80676;SHT30;70041;46.088;18.268;2024-01-27T10:25:46;8.70;50.40
80676;SHT30;70041;46.088;18.268;2024-01-27T10:28:11;8.65;51.62
80676;SHT30;70041;46.088;18.268;2024-01-27T10:30:37;8.62;50.85
80676;SHT30;70041;46.088;18.268;2024-01-27T10:33:03;8.62;50.06
80676;SHT30;70041;46.088;18.268;2024-01-27T10:35:29;8.57;50.01
80676;SHT30;70041;46.088;18.268;2024-01-27T10:37:55;8.50;49.63
80676;SHT30;70041;46.088;18.268;2024-01-27T10:40:21;8.45;50.21
80676;SHT30;70041;46.088;18.268;2024-01-27T10:43:00;8.35;51.23
80676;SHT30;70041;46.088;18.268;2024-01-27T10:45:27;8.44;51.37
80676;SHT30;70041;46.088;18.268;2024-01-27T10:47:53;8.45;50.47
80676;SHT30;70041;46.088;18.268;2024-01-27T10:50:21;8.56;51.36
80676;SHT30;70041;46.088;18.268;2024-01-27T10:52:50;8.57;49.86
80676;SHT30;70041;46.088;18.268;2024-01-27T10:55:17;8.60;50.41
80676;SHT30;70041;46.088;18.268;2024-01-27T10:57:44;8.57;50.33
80676;SHT30;70041;46.088;18.268;2024-01-27T11:00:10;8.81;50.17
80676;SHT30;70041;46.088;18.268;2024-01-27T11:02:37;8.50;50.58
80676;SHT30;70041;46.088;18.268;2024-01-27T11:05:04;8.49;51.28
80676;SHT30;70041;46.088;18.268;2024-01-27T11:07:32;8.44;51.20
80676;SHT30;70041;46.088;18.268;2024-01-27T11:09:58;8.21;51.30
80676;SHT30;70041;46.088;18.268;2024-01-27T11:12:24;8.02;51.62
80676;SHT30;70041;46.088;18.268;2024-01-27T11:14:51;7.91;51.96
80676;SHT30;70041;46.088;18.268;2024-01-27T11:17:17;7.78;52.60
80676;SHT30;70041;46.088;18.268;2024-01-27T11:19:44;8.04;51.67
80676;SHT30;70041;46.088;18.268;2024-01-27T11:22:30;7.94;51.78
80676;SHT30;70041;46.088;18.268;2024-01-27T11:27:39;8.35;51.78
80676;SHT30;70041;46.088;18.268;2024-01-27T11:30:06;8.44;51.10
80676;SHT30;70041;46.088;18.268;2024-01-27T11:32:32;8.62;50.26
80676;SHT30;70041;46.088;18.268;2024-01-27T11:35:00;9.00;49.60
80676;SHT30;70041;46.088;18.268;2024-01-27T11:37:30;9.00;50.08
80676;SHT30;70041;46.088;18.268;2024-01-27T11:40:05;9.00;50.37
80676;SHT30;70041;46.088;18.268;2024-01-27T11:42:34;9.27;49.59
80676;SHT30;70041;46.088;18.268;2024-01-27T11:45:00;9.38;49.35
80676;SHT30;70041;46.088;18.268;2024-01-27T11:47:26;9.49;48.77
80676;SHT30;70041;46.088;18.268;2024-01-27T11:49:54;9.52;47.57
80676;SHT30;70041;46.088;18.268;2024-01-27T11:52:20;9.69;46.37
80676;SHT30;70041;46.088;18.268;2024-01-27T11:54:56;9.75;46.00
80676;SHT30;70041;46.088;18.268;2024-01-27T11:57:22;9.67;45.83
80676;SHT30;70041;46.088;18.268;2024-01-27T11:59:48;9.69;46.17
80676;SHT30;70041;46.088;18.268;2024-01-27T12:02:14;9.82;44.57
80676;SHT30;70041;46.088;18.268;2024-01-27T12:04:40;10.10;45.04
80676;SHT30;70041;46.088;18.268;2024-01-27T12:07:06;10.23;44.09
80676;SHT30;70041;46.088;18.268;2024-01-27T12:09:32;10.13;43.73
80676;SHT30;70041;46.088;18.268;2024-01-27T12:11:57;10.02;44.71
80676;SHT30;70041;46.088;18.268;2024-01-27T12:14:23;10.16;44.96
80676;SHT30;70041;46.088;18.268;2024-01-27T12:16:48;10.06;44.52
80676;SHT30;70041;46.088;18.268;2024-01-27T12:19:14;9.90;44.27
80676;SHT30;70041;46.088;18.268;2024-01-27T12:21:47;10.10;43.37
80676;SHT30;70041;46.088;18.268;2024-01-27T12:24:16;10.19;43.26
80676;SHT30;70041;46.088;18.268;2024-01-27T12:26:44;10.78;42.92
80676;SHT30;70041;46.088;18.268;2024-01-27T12:29:10;11.18;41.92
80676;SHT30;70041;46.088;18.268;2024-01-27T12:31:36;11.24;40.97
80676;SHT30;70041;46.088;18.268;2024-01-27T12:34:01;11.34;40.76
80676;SHT30;70041;46.088;18.268;2024-01-27T12:36:27;11.53;41.05
80676;SHT30;70041;46.088;18.268;2024-01-27T12:41:19;11.62;39.80
80676;SHT30;70041;46.088;18.268;2024-01-27T12:43:45;11.91;40.00
80676;SHT30;70041;46.088;18.268;2024-01-27T12:46:10;11.77;39.58
80676;SHT30;70041;46.088;18.268;2024-01-27T12:48:37;11.61;40.42
80676;SHT30;70041;46.088;18.268;2024-01-27T12:51:04;11.28;40.87
80676;SHT30;70041;46.088;18.268;2024-01-27T12:53:29;11.01;41.54
80676;SHT30;70041;46.088;18.268;2024-01-27T12:55:55;10.92;41.41
80676;SHT30;70041;46.088;18.268;2024-01-27T12:58:21;10.91;41.69
80676;SHT30;70041;46.088;18.268;2024-01-27T13:00:46;11.24;41.47
80676;SHT30;70041;46.088;18.268;2024-01-27T13:03:12;11.51;40.95
80676;SHT30;70041;46.088;18.268;2024-01-27T13:05:37;11.80;39.79
80676;SHT30;70041;46.088;18.268;2024-01-27T13:08:04;11.83;40.11
80676;SHT30;70041;46.088;18.268;2024-01-27T13:10:30;11.32;40.05
80676;SHT30;70041;46.088;18.268;2024-01-27T13:12:55;11.12;41.62
80676;SHT30;70041;46.088;18.268;2024-01-27T13:15:21;10.87;41.47
80676;SHT30;70041;46.088;18.268;2024-01-27T13:17:49;10.65;41.99
80676;SHT30;70041;46.088;18.268;2024-01-27T13:20:14;10.61;42.23
80676;SHT30;70041;46.088;18.268;2024-01-27T13:22:40;10.67;42.57
80676;SHT30;70041;46.088;18.268;2024-01-27T13:25:05;10.56;42.85
80676;SHT30;70041;46.088;18.268;2024-01-27T13:27:31;10.53;42.20
80676;SHT30;70041;46.088;18.268;2024-01-27T13:29:56;10.53;41.31
80676;SHT30;70041;46.088;18.268;2024-01-27T13:32:22;10.47;40.87
80676;SHT30;70041;46.088;18.268;2024-01-27T13:34:47;10.30;40.84
80676;SHT30;70041;46.088;18.268;2024-01-27T13:37:13;10.34;40.06
80676;SHT30;70041;46.088;18.268;2024-01-27T13:39:41;10.33;40.99
80676;SHT30;70041;46.088;18.268;2024-01-27T13:42:06;10.32;41.26
80676;SHT30;70041;46.088;18.268;2024-01-27T13:44:32;10.36;41.04
80676;SHT30;70041;46.088;18.268;2024-01-27T13:47:04;10.49;42.53
80676;SHT30;70041;46.088;18.268;2024-01-27T13:49:31;10.53;41.73
80676;SHT30;70041;46.088;18.268;2024-01-27T13:51:56;10.63;41.63
80676;SHT30;70041;46.088;18.268;2024-01-27T13:54:22;10.44;41.92
80676;SHT30;70041;46.088;18.268;2024-01-27T13:56:47;10.39;42.56
80676;SHT30;70041;46.088;18.268;2024-01-27T13:59:13;10.47;42.50
80676;SHT30;70041;46.088;18.268;2024-01-27T14:01:38;10.34;42.31
80676;SHT30;70041;46.088;18.268;2024-01-27T14:04:04;10.19;42.50
80676;SHT30;70041;46.088;18.268;2024-01-27T14:06:30;10.06;42.92
80676;SHT30;70041;46.088;18.268;2024-01-27T14:08:55;10.02;43.36
80676;SHT30;70041;46.088;18.268;2024-01-27T14:11:23;9.96;43.93
80676;SHT30;70041;46.088;18.268;2024-01-27T14:13:49;9.90;43.85
80676;SHT30;70041;46.088;18.268;2024-01-27T14:16:14;9.86;43.78
80676;SHT30;70041;46.088;18.268;2024-01-27T14:18:40;9.78;44.01
80676;SHT30;70041;46.088;18.268;2024-01-27T14:21:05;9.75;45.01
80676;SHT30;70041;46.088;18.268;2024-01-27T14:23:30;9.78;44.54
80676;SHT30;70041;46.088;18.268;2024-01-27T14:25:57;9.78;44.53
80676;SHT30;70041;46.088;18.268;2024-01-27T14:28:22;9.72;44.11
80676;SHT30;70041;46.088;18.268;2024-01-27T14:30:47;9.54;44.83
80676;SHT30;70041;46.088;18.268;2024-01-27T14:33:13;9.49;45.56
80676;SHT30;70041;46.088;18.268;2024-01-27T14:35:39;9.51;45.13
80676;SHT30;70041;46.088;18.268;2024-01-27T14:38:05;9.51;45.75
80676;SHT30;70041;46.088;18.268;2024-01-27T14:40:33;9.57;45.33
80676;SHT30;70041;46.088;18.268;2024-01-27T14:42:59;9.65;45.30
80676;SHT30;70041;46.088;18.268;2024-01-27T14:45:24;9.54;45.78
80676;SHT30;70041;46.088;18.268;2024-01-27T14:47:50;9.37;46.56
80676;SHT30;70041;46.088;18.268;2024-01-27T14:50:15;9.26;47.39
80676;SHT30;70041;46.088;18.268;2024-01-27T14:52:40;9.14;47.37
80676;SHT30;70041;46.088;18.268;2024-01-27T14:55:07;9.06;47.98
80676;SHT30;70041;46.088;18.268;2024-01-27T14:57:34;9.00;48.44
80676;SHT30;70041;46.088;18.268;2024-01-27T14:59:59;8.91;48.24
80676;SHT30;70041;46.088;18.268;2024-01-27T15:02:24;8.81;49.18
80676;SHT30;70041;46.088;18.268;2024-01-27T15:04:50;8.76;49.12
80676;SHT30;70041;46.088;18.268;2024-01-27T15:07:15;8.65;49.59
80676;SHT30;70041;46.088;18.268;2024-01-27T15:09:43;8.49;50.27
80676;SHT30;70041;46.088;18.268;2024-01-27T15:12:08;8.52;50.31
80676;SHT30;70041;46.088;18.268;2024-01-27T15:14:34;8.45;50.78
80676;SHT30;70041;46.088;18.268;2024-01-27T15:16:59;8.35;50.77
80676;SHT30;70041;46.088;18.268;2024-01-27T15:19:24;8.24;51.12
80676;SHT30;70041;46.088;18.268;2024-01-27T15:21:50;8.05;51.30
80676;SHT30;70041;46.088;18.268;2024-01-27T15:24:15;8.05;51.30
80676;SHT30;70041;46.088;18.268;2024-01-27T15:26:41;8.12;51.30